Details From KBUR - Bob Hope
To KFDW - Fairfield Co
Flight Number -
Tags Generated
Created
Modified
Stats Distance 1,838 nm / 3,404 km
Max Altitude 0 ft / 0 m
Waypoints 10
Social Downloads 0
Likes 0
Share VATSIM

Download

Looking for another format? Having issues loading an existing format? Contact us
Advertisement - Login to hide

Notes

Generated

Route

KBUR 11062 ARABE 13654 DANKS IVCUP PALYN ITYOJ 23752 KFDW

ID Type Via Altitude Latitude Longitude Leg Dist Tot Dist Heading (true) Name
O KBUR APT - 0 ft / 0 m 34.21247˚ -118.36051˚ - 0 nm - -
11062 FIX - 0 ft / 0 m 34.88242˚ -113.67019˚ 235 nm 235 nm 79° / 81° -
ARABE FIX - 0 ft / 0 m 35.32347˚ -108.95544˚ 233 nm 468 nm 82° / 85° -
13654 FIX - 0 ft / 0 m 35.54833˚ -104.16256˚ 234 nm 703 nm 85° / 88° -
DANKS FIX - 0 ft / 0 m 35.63046˚ -99.32568˚ 236 nm 939 nm 87° / 90° -
IVCUP FIX - 0 ft / 0 m 35.58244˚ -95.27108˚ 197 nm 1137 nm 90° / 92° -
PALYN FIX - 0 ft / 0 m 35.32692˚ -90.23219˚ 246 nm 1384 nm 92° / 95° -
ITYOJ FIX - 0 ft / 0 m 34.91940˚ -85.75902˚ 221 nm 1605 nm 95° / 98° -
23752 FIX - 0 ft / 0 m 34.35773˚ -81.42176˚ 216 nm 1822 nm 98° / 100° -
O KFDW APT - 0 ft / 0 m 34.31006˚ -81.11393˚ 15 nm 1838 nm 101° / 101° -

Altitude Profile

Advertisement - Login to hide

Weather


0- 5 10 15 20 25 30 35+ Temperature / ° C

Clouds and Precipitation
Forecast for 2017-12-18 18:00 UTC. Updated 2 hours ago

Ground ~20,000 ft ~40,000 ft Winds

KBUR

Details ICAO KBUR (BUR)
Name BOB HOPE
Region United States
Timezone America/Los_Angeles (UTC-8.0)
Stats Elevation 778 ft / 237 m (AMSL)
Location 34.200475° -118.358767°
Runways 2
Magnetic Variation 12.046° E

METAR

KBUR 181653Z 00000KT 10SM CLR 17/M07 A3018 RMK AO2 SLP209 T01721072

Decode

TAF

KBUR 181124Z 1812/1912 VRB03KT P6SM SKC

Decode

Departure Runways

ID Width Length Bearing (true) Bearing (mag) Surface Threshold Offset Overrun Length
08 151 ft / 46 m 5,835 ft / 1,779 m 90.92° 78.87° Asphalt 0 ft / 0 m 259 ft / 79 m
15 151 ft / 46 m 6,962 ft / 2,122 m 167.12° 155.07° Asphalt 909 ft / 277 m 0 ft / 0 m
26 151 ft / 46 m 5,835 ft / 1,779 m 270.93° 258.88° Asphalt 0 ft / 0 m 253 ft / 77 m
33 151 ft / 46 m 6,962 ft / 2,122 m 347.12° 335.07° Asphalt 351 ft / 107 m 0 ft / 0 m

KFDW

Details ICAO KFDW
Name Fairfield Co
Region United States
Timezone America/New_York (UTC-5.0)
Stats Elevation 577 ft / 176 m (AMSL)
Location 34.315464° -81.108800°
Runways 1
Magnetic Variation 7.433° W

METAR

KFDW 181655Z AUTO 23003KT 10SM SCT120 13/08 A3015 RMK AO1

Decode

TAF

Not found

Destination Runways

ID Width Length Bearing (true) Bearing (mag) Surface Threshold Offset Overrun Length
04 100 ft / 30 m 5,010 ft / 1,527 m 38.09° 45.52° Asphalt 0 ft / 0 m 0 ft / 0 m
22 100 ft / 30 m 5,010 ft / 1,527 m 218.10° 225.53° Asphalt 0 ft / 0 m 0 ft / 0 m